createdAt,value
2023-02-24T00:00:51.599Z,6.31
2023-02-24T00:10:53.841Z,6.32
2023-02-24T00:20:59.007Z,6.23
2023-02-24T00:31:14.322Z,6.08
2023-02-24T00:41:22.614Z,6.00
2023-02-24T00:51:27.267Z,5.86
2023-02-24T01:01:32.503Z,5.80
2023-02-24T01:11:54.516Z,5.94
2023-02-24T01:22:01.265Z,5.99
2023-02-24T01:32:03.680Z,5.81
2023-02-24T01:42:06.894Z,5.78
2023-02-24T01:52:22.308Z,5.88
2023-02-24T02:02:25.199Z,6.01
2023-02-24T02:12:28.563Z,6.00
2023-02-24T02:23:07.672Z,5.98
2023-02-24T02:33:13.362Z,5.92
2023-02-24T02:43:45.365Z,6.09
2023-02-24T02:54:16.496Z,6.14
2023-02-24T03:04:25.424Z,6.15
2023-02-24T03:14:33.380Z,6.09
2023-02-24T03:24:39.107Z,6.07
2023-02-24T03:34:57.989Z,6.01
2023-02-24T03:45:00.423Z,5.94
2023-02-24T03:55:16.795Z,5.94
2023-02-24T04:05:23.691Z,5.89
2023-02-24T04:15:37.793Z,5.84
2023-02-24T06:05:25.439Z,3.71
2023-02-24T06:15:28.881Z,4.53
2023-02-24T06:25:33.492Z,4.98
2023-02-24T06:35:35.753Z,5.25
2023-02-24T06:45:38.041Z,5.34
2023-02-24T06:55:40.257Z,5.38
2023-02-24T07:06:16.601Z,5.39
2023-02-24T07:16:25.279Z,5.09
2023-02-24T07:26:27.964Z,4.69
2023-02-24T07:36:30.887Z,4.69
2023-02-24T07:46:33.669Z,5.06
2023-02-24T07:56:46.113Z,5.17
2023-02-24T08:06:55.832Z,5.10
2023-02-24T08:16:59.554Z,5.00
2023-02-24T08:27:05.399Z,5.16
2023-02-24T08:37:07.671Z,5.18
2023-02-24T08:47:09.886Z,5.21
2023-02-24T08:57:15.358Z,5.47
2023-02-24T09:07:29.500Z,5.89
2023-02-24T09:17:50.241Z,6.35
2023-02-24T09:28:08.564Z,6.86
2023-02-24T09:38:10.768Z,7.12
2023-02-24T09:48:21.428Z,6.09
2023-02-24T09:58:26.940Z,5.85
2023-02-24T10:08:38.479Z,6.24
2023-02-24T10:19:01.423Z,6.80
2023-02-24T10:29:31.427Z,7.40
2023-02-24T10:39:33.636Z,7.67
2023-02-24T10:49:50.876Z,7.33
2023-02-24T11:00:20.347Z,6.67
2023-02-24T11:10:32.554Z,6.56
2023-02-24T11:20:49.314Z,6.13
2023-02-24T11:31:34.761Z,6.56
2023-02-24T11:41:43.994Z,6.45
2023-02-24T11:51:46.563Z,6.27
2023-02-24T12:02:38.774Z,6.17
2023-02-24T12:12:53.023Z,6.08
2023-02-24T12:23:23.407Z,6.33
2023-02-24T12:34:20.843Z,7.00
2023-02-24T12:44:41.006Z,7.31
2023-02-24T12:54:55.326Z,7.60
2023-02-24T13:05:10.334Z,7.20
2023-02-24T13:15:25.548Z,7.22
2023-02-24T13:25:37.259Z,7.58
2023-02-24T13:35:39.501Z,7.46
2023-02-24T13:45:42.865Z,7.34
2023-02-24T13:55:53.272Z,7.31
2023-02-24T14:05:55.824Z,7.25
2023-02-24T14:15:59.794Z,7.19
2023-02-24T14:26:06.605Z,7.21
2023-02-24T14:36:23.124Z,7.23
2023-02-24T14:46:26.269Z,7.02
2023-02-24T14:56:32.935Z,6.67
2023-02-24T15:06:40.947Z,6.18
2023-02-24T15:16:47.372Z,6.03
2023-02-24T15:27:01.247Z,5.81
2023-02-24T15:37:15.017Z,5.54
2023-02-24T15:47:24.683Z,5.21
2023-02-24T15:57:30.038Z,5.02
2023-02-24T16:07:35.285Z,4.97
2023-02-24T16:17:41.921Z,4.79
2023-02-24T16:27:44.397Z,4.74
2023-02-24T16:37:47.878Z,4.67
2023-02-24T16:47:50.401Z,4.44
2023-02-24T16:57:52.606Z,4.31
2023-02-24T17:07:56.406Z,4.22
2023-02-24T17:17:58.667Z,4.10
2023-02-24T17:28:01.390Z,4.07
2023-02-24T17:38:03.670Z,4.09
2023-02-24T17:48:05.947Z,3.99
2023-02-24T17:58:08.921Z,3.84
2023-02-24T18:08:14.109Z,3.67
2023-02-24T18:18:16.589Z,3.51
2023-02-24T18:28:18.756Z,3.33
2023-02-24T18:38:20.964Z,3.32
2023-02-24T18:48:23.299Z,3.40
2023-02-24T18:58:25.508Z,3.41
2023-02-24T19:08:27.726Z,3.26
2023-02-24T19:18:29.993Z,3.12
2023-02-24T19:28:32.203Z,2.81
2023-02-24T19:38:34.418Z,2.58
2023-02-24T19:48:36.672Z,2.53
2023-02-24T19:58:39.178Z,2.54
2023-02-24T20:08:41.423Z,2.44
2023-02-24T20:18:44.815Z,2.41
2023-02-24T20:28:47.657Z,2.39
2023-02-24T20:38:50.392Z,2.37
2023-02-24T20:48:56.114Z,2.22
2023-02-24T20:59:04.006Z,2.09
2023-02-24T21:09:06.477Z,2.08
2023-02-24T21:19:08.718Z,2.06
2023-02-24T21:29:10.954Z,2.07
2023-02-24T21:40:12.299Z,1.72
2023-02-24T21:50:16.105Z,1.63
2023-02-24T22:10:17.062Z,1.41
2023-02-24T22:20:19.253Z,1.55
2023-02-24T22:30:21.462Z,1.59
2023-02-24T22:40:23.648Z,1.62
2023-02-24T22:50:25.991Z,1.58
2023-02-24T23:00:28.196Z,1.75
2023-02-24T23:10:30.429Z,1.63
2023-02-24T23:20:32.622Z,1.60
2023-02-24T23:30:35.726Z,1.50
2023-02-24T23:40:49.551Z,1.25
2023-02-24T23:50:57.346Z,1.26
